Elk City, OK

3:25 PM CST on December 10, 2016 (GMT -0600)
Clinton-Sherman | | Change Station

Elev 1923 ft 35.34 °N, 99.20 °W | Updated 32 minutes ago

Clear
Clear
49 °F
Feels Like 49 °F
N
26
Wind Variable Wind from South
Gusts 34 mph

Today
High -- | Low -- °F
--% Chance of Precip.
Yesterday
High -- | Low -- °F
Precip. -- in
Pressure 30.05 in
Visibility 10.0 miles
Clouds Clear
Dew Point 32 °F
Humidity 52%
Rainfall 0.00 in
Snow Depth Not available.
7:36 AM 5:25 PM
Waxing Gibbous, 86% visible
METAR KCSM 102053Z AUTO 17023G30KT 10SM CLR 09/00 A3003 RMK AO2 PK WND 19031/2023 SLP174 T00940000 56047
Pressure 30.05 in
Visibility 10.0 miles
Clouds Clear
Dew Point 32 °F
Humidity 52%
Rainfall 0.00 in
Snow Depth Not available.
7:36 AM 5:25 PM
Waxing Gibbous, 86% visible
METAR KCSM 102053Z AUTO 17023G30KT 10SM CLR 09/00 A3003 RMK AO2 PK WND 19031/2023 SLP174 T00940000 56047

10-Day Weather Forecast

Almanac

Astronomy

Dec. 10, 2016 Rise Set
Actual Time
Civil Twilight
Nautical Twilight
Astronomical Twilight
Moon
Length of Visible Light
Length of Day
Tomorrow will be .
, % of the Moon is Illuminated

Today's Extremes

State Highs State Lows

Community

WunderPhotos

Upload Photos

1,956,664 photos uploaded!

WunderBlog® & News

Nearby

Air Quality

  Air Quality AQ Index Pollutant
Not available.

Snow Depth

Station Depth Elevation

Earthquake Activity

City Distance Mag. Time & Date
Minimum magnitude displayed is 2.5.

Coastal Water Temperatures

Place Temperature

Stations

Nearby Weather Stations

Station Location Temp. Windchill Dew Point Humidity Wind Precip. Elev Updated Type
                   

Watches & Warnings

There are currently no watches in effect.